Time;durP1;ratioP1;P1;durP2;ratioP2;P2;SDS_P1;SDS_P2;PMS_P1;PMS_P2;Temp;Humidity;BMP_temperature;BMP_pressure;BME280_temperature;BME280_humidity;BME280_pressure;Samples;Min_cycle;Max_cycle;Signal;HPM_P1;HPM_P2
2023/04/03 00:00:44;;;;;;;3.72;1.70;;;;;;;6.28;52.35;101658.78;4130747;28;20030;-74
2023/04/03 00:02:47;;;;;;;3.88;1.75;;;;;;;6.23;52.82;101655.94;4131955;28;20045;-73
2023/04/03 00:04:51;;;;;;;6.50;2.05;;;;;;;6.23;52.85;101653.34;4131178;28;20129;-73
2023/04/03 00:06:53;;;;;;;2.63;1.67;;;;;;;6.29;52.29;101660.53;4132800;28;20085;-73
2023/04/03 00:08:56;;;;;;;4.63;2.00;;;;;;;6.33;51.79;101661.59;4131373;28;20125;-72
2023/04/03 00:11:01;;;;;;;2.65;1.88;;;;;;;6.34;51.72;101665.91;4132718;28;20404;-72
2023/04/03 00:13:04;;;;;;;6.07;2.00;;;;;;;6.39;51.39;101659.31;4130722;28;20062;-72
2023/04/03 00:15:08;;;;;;;4.32;2.13;;;;;;;6.36;50.91;101659.16;4132236;28;20492;-72
2023/04/03 00:17:12;;;;;;;5.28;2.10;;;;;;;6.33;50.60;101659.00;4132075;28;20527;-71
2023/04/03 00:19:15;;;;;;;4.68;2.08;;;;;;;6.24;51.37;101660.28;4130279;28;20050;-72
2023/04/03 00:21:18;;;;;;;8.23;2.60;;;;;;;6.16;51.79;101661.59;4132411;28;20121;-72
2023/04/03 00:23:23;;;;;;;2.67;1.80;;;;;;;6.16;51.86;101658.13;4130974;28;20038;-72
2023/04/03 00:25:26;;;;;;;;;;;;;;;6.16;50.95;101663.28;4131229;28;20049;-72
2023/04/03 00:27:28;;;;;;;3.10;1.90;;;;;;;6.11;51.42;101660.47;4131173;28;19972;-72
2023/04/03 00:29:31;;;;;;;4.30;2.00;;;;;;;6.10;51.13;101666.44;4130154;28;20081;-72
2023/04/03 00:31:34;;;;;;;5.03;2.20;;;;;;;6.09;50.66;101662.97;4129077;28;20564;-72
2023/04/03 00:33:38;;;;;;;3.90;1.95;;;;;;;6.06;50.93;101664.50;4129501;28;20038;-72
2023/04/03 00:35:42;;;;;;;4.43;2.08;;;;;;;6.03;50.83;101669.50;4144779;28;20068;-71
2023/04/03 00:37:46;;;;;;;4.00;1.95;;;;;;;6.06;51.15;101662.81;4131247;28;20546;-71
2023/04/03 00:39:48;;;;;;;4.32;2.05;;;;;;;5.99;50.93;101672.75;4133660;28;20487;-71
2023/04/03 00:41:51;;;;;;;5.35;2.50;;;;;;;5.94;50.98;101665.63;4130806;28;20040;-72
2023/04/03 00:43:54;;;;;;;3.53;1.98;;;;;;;6.03;50.98;101677.25;4142816;28;20407;-72
2023/04/03 00:45:59;;;;;;;4.00;1.90;;;;;;;5.91;50.97;101673.22;4128806;28;20056;-72
2023/04/03 00:48:06;;;;;;;2.50;1.85;;;;;;;5.92;50.99;101672.38;4113632;28;20058;-73
2023/04/03 00:50:11;;;;;;;5.15;2.08;;;;;;;6.03;50.78;101674.66;4125220;28;20101;-72
2023/04/03 00:52:17;;;;;;;4.78;2.05;;;;;;;5.91;51.23;101669.72;4130042;28;20053;-72
2023/04/03 00:54:20;;;;;;;3.47;1.83;;;;;;;5.89;51.51;101672.22;4144897;28;20038;-72
2023/04/03 00:56:27;;;;;;;3.42;1.80;;;;;;;5.90;51.38;101668.84;4145428;28;20038;-73
2023/04/03 00:58:34;;;;;;;5.50;1.77;;;;;;;5.93;51.00;101669.00;4130406;28;20145;-73
2023/04/03 01:00:41;;;;;;;5.63;1.85;;;;;;;5.85;51.22;101659.97;4129867;28;20485;-73
2023/04/03 01:02:43;;;;;;;3.63;1.60;;;;;;;5.89;51.18;101666.19;4130039;28;20042;-73
2023/04/03 01:04:48;;;;;;;2.67;1.70;;;;;;;5.86;51.13;101664.31;4146181;28;20225;-73
2023/04/03 01:06:52;;;;;;;2.00;1.40;;;;;;;5.88;51.32;101670.44;4128520;28;20038;-73
2023/04/03 01:08:56;;;;;;;5.22;1.83;;;;;;;5.88;51.27;101662.69;4129526;28;20057;-73
2023/04/03 01:10:59;;;;;;;4.65;1.77;;;;;;;5.83;51.45;101656.41;4111913;28;20139;-73
2023/04/03 01:13:19;;;;;;;4.82;2.00;;;;;;;5.82;51.39;101657.22;4127356;28;20034;-73
2023/04/03 01:15:25;;;;;;;4.63;2.63;;;;;;;5.75;51.74;101658.59;4144928;28;20069;-73
2023/04/03 01:17:30;;;;;;;3.97;2.05;;;;;;;5.75;51.55;101660.28;4145194;28;20104;-73
2023/04/03 01:19:38;;;;;;;4.35;2.00;;;;;;;5.66;51.95;101658.09;4128335;28;20035;-73
2023/04/03 01:22:03;;;;;;;4.47;1.80;;;;;;;5.77;51.42;101661.25;4112733;28;20043;-73
2023/04/03 01:24:17;;;;;;;4.28;2.13;;;;;;;5.69;51.67;101659.97;4125481;28;20110;-74
2023/04/03 01:26:21;;;;;;;4.85;2.10;;;;;;;5.68;51.55;101666.81;4129055;28;20121;-72
2023/04/03 01:28:26;;;;;;;4.10;2.10;;;;;;;5.72;51.35;101666.19;4129223;28;20058;-73
2023/04/03 01:30:33;;;;;;;4.85;1.90;;;;;;;5.71;51.57;101666.06;4128704;28;20042;-73
2023/04/03 01:32:38;;;;;;;5.15;2.25;;;;;;;5.70;51.77;101669.47;4144963;28;20453;-73
2023/04/03 01:34:41;;;;;;;3.58;2.00;;;;;;;5.64;52.16;101664.88;4144475;28;20196;-73
2023/04/03 01:36:43;;;;;;;4.85;2.22;;;;;;;5.60;52.20;101665.50;4125357;28;20463;-73
2023/04/03 01:38:46;;;;;;;4.18;2.50;;;;;;;5.59;52.33;101669.78;4127198;28;20039;-73
2023/04/03 01:40:49;;;;;;;8.43;2.00;;;;;;;5.56;52.58;101667.06;4129098;28;20539;-73
2023/04/03 01:42:52;;;;;;;5.38;2.50;;;;;;;5.56;52.54;101669.63;4128517;28;20084;-73
2023/04/03 01:44:55;;;;;;;4.88;2.35;;;;;;;5.50;52.96;101666.69;4112897;28;20049;-73
2023/04/03 01:46:58;;;;;;;4.95;2.22;;;;;;;5.54;53.14;101668.66;4143057;28;20496;-72
2023/04/03 01:49:04;;;;;;;;;;;;;;;5.46;53.29;101669.94;4147504;28;20092;-72
2023/04/03 01:51:07;;;;;;;3.83;2.17;;;;;;;5.47;53.13;101671.69;4131908;28;19922;-72
2023/04/03 01:53:10;;;;;;;3.65;2.38;;;;;;;5.44;53.20;101663.78;4131845;28;20415;-73
2023/04/03 01:55:13;;;;;;;3.97;2.22;;;;;;;5.42;53.56;101674.03;4114434;28;20038;-74
2023/04/03 01:57:16;;;;;;;8.00;2.72;;;;;;;5.48;53.26;101677.75;4114748;28;20071;-73
2023/04/03 01:59:19;;;;;;;8.52;3.10;;;;;;;5.47;53.83;101676.84;4114593;28;20081;-73
2023/04/03 02:01:22;;;;;;;5.07;2.72;;;;;;;5.55;53.29;101673.00;4129072;28;20046;-71
2023/04/03 02:03:25;;;;;;;4.53;2.50;;;;;;;5.42;53.90;101673.16;4130228;28;20418;-72
2023/04/03 02:05:29;;;;;;;6.47;2.95;;;;;;;5.37;54.16;101680.63;4146806;28;20089;-71
2023/04/03 02:07:32;;;;;;;4.90;2.60;;;;;;;5.36;54.29;101671.13;4147008;28;20617;-71
2023/04/03 02:09:35;;;;;;;4.40;2.63;;;;;;;5.25;54.41;101667.06;4130524;28;20133;-72
2023/04/03 02:11:38;;;;;;;3.60;2.30;;;;;;;5.20;55.00;101671.97;4146959;28;20121;-72
2023/04/03 02:13:41;;;;;;;6.20;2.90;;;;;;;5.17;55.30;101678.63;4114204;28;20049;-72
2023/04/03 02:15:46;;;;;;;5.72;2.95;;;;;;;5.12;55.60;101673.22;4114378;28;20134;-72
2023/04/03 02:17:52;;;;;;;5.45;2.88;;;;;;;5.16;55.54;101680.31;4131612;28;20046;-72
2023/04/03 02:19:56;;;;;;;5.47;2.30;;;;;;;5.24;55.36;101679.06;4128744;28;20126;-71
2023/04/03 02:22:00;;;;;;;5.30;3.00;;;;;;;5.09;55.78;101674.75;4129311;28;20038;-73
2023/04/03 02:24:03;;;;;;;7.00;3.08;;;;;;;5.14;55.97;101681.94;4143748;28;20505;-73
2023/04/03 02:26:08;;;;;;;4.82;2.60;;;;;;;5.14;55.82;101676.78;4127721;28;20427;-72
2023/04/03 02:28:11;;;;;;;;;;;;;;;5.13;55.84;101677.56;4129357;28;20046;-70
2023/04/03 02:30:14;;;;;;;4.95;2.38;;;;;;;5.05;55.65;101671.09;4128904;28;19953;-71
2023/04/03 02:32:17;;;;;;;6.72;2.80;;;;;;;5.01;55.96;101679.47;4144729;28;20534;-71
2023/04/03 02:34:20;;;;;;;3.58;2.22;;;;;;;5.14;55.69;101675.88;4144819;28;20042;-71
2023/04/03 02:36:23;;;;;;;3.53;2.50;;;;;;;5.10;55.38;101671.38;4129174;28;20048;-71
2023/04/03 02:38:31;;;;;;;3.75;2.30;;;;;;;5.18;54.95;101671.00;4127299;28;20042;-71
2023/04/03 02:40:34;;;;;;;3.88;2.45;;;;;;;5.07;55.18;101665.22;4144018;28;20072;-72
2023/04/03 02:42:38;;;;;;;5.00;2.20;;;;;;;4.99;55.65;101665.59;4127983;28;20100;-72
2023/04/03 02:44:41;;;;;;;2.80;2.03;;;;;;;4.98;55.91;101668.97;4141878;28;20038;-71
2023/04/03 02:46:45;;;;;;;3.95;2.70;;;;;;;5.04;55.66;101669.34;4143944;28;20060;-72
2023/04/03 02:48:48;;;;;;;4.95;2.65;;;;;;;5.06;55.62;101668.59;4111529;28;20310;-72
2023/04/03 02:50:53;;;;;;;4.82;2.17;;;;;;;4.86;56.18;101662.34;4143613;28;20446;-72
2023/04/03 02:52:56;;;;;;;6.05;2.67;;;;;;;4.96;55.76;101670.59;4125826;28;20416;-72
2023/04/03 02:55:00;;;;;;;4.60;2.45;;;;;;;4.82;56.32;101662.97;4129113;28;20042;-72
2023/04/03 02:57:03;;;;;;;5.15;2.80;;;;;;;4.89;55.40;101665.09;4128110;28;20034;-71
2023/04/03 02:59:06;;;;;;;3.58;2.17;;;;;;;4.85;56.17;101663.13;4127549;28;20460;-72
2023/04/03 03:01:12;;;;;;;5.38;2.53;;;;;;;4.87;56.09;101666.66;4143639;28;20038;-72
2023/04/03 03:03:15;;;;;;;5.33;2.67;;;;;;;4.86;55.91;101659.75;4110569;28;20058;-72
2023/04/03 03:05:19;;;;;;;5.95;2.50;;;;;;;4.89;56.02;101661.59;4128161;28;20034;-72
2023/04/03 03:07:21;;;;;;;4.18;2.28;;;;;;;4.86;55.54;101658.84;4143795;28;20114;-72
2023/04/03 03:09:25;;;;;;;4.55;2.67;;;;;;;4.78;55.95;101666.16;4128466;28;20093;-73
2023/04/03 03:11:29;;;;;;;3.58;2.28;;;;;;;4.66;56.50;101661.19;4128087;28;20039;-73
2023/04/03 03:13:32;;;;;;;6.15;3.08;;;;;;;4.59;56.90;101671.94;4128228;28;20030;-73
2023/04/03 03:15:35;;;;;;;5.47;2.40;;;;;;;4.66;56.91;101666.34;4143112;28;20053;-73
2023/04/03 03:17:39;;;;;;;5.30;2.78;;;;;;;4.79;56.25;101673.09;4141744;28;20609;-74
2023/04/03 03:19:42;;;;;;;5.35;2.38;;;;;;;4.74;56.30;101669.34;4123812;28;20081;-73
2023/04/03 03:21:45;;;;;;;5.55;2.08;;;;;;;4.68;56.60;101676.72;4144240;28;20042;-72
2023/04/03 03:23:47;;;;;;;3.80;2.20;;;;;;;4.69;56.57;101681.09;4137475;28;20053;-72
2023/04/03 03:25:56;;;;;;;4.63;2.17;;;;;;;4.78;56.17;101678.16;4143340;28;20034;-72
2023/04/03 03:28:00;;;;;;;3.95;2.10;;;;;;;4.64;56.43;101682.50;4128296;28;20121;-73
2023/04/03 03:30:04;;;;;;;5.38;2.50;;;;;;;4.64;56.36;101673.06;4142016;28;20029;-73
2023/04/03 03:32:08;;;;;;;3.90;2.50;;;;;;;4.58;56.74;101677.00;4130564;28;20066;-73
2023/04/03 03:34:11;;;;;;;5.88;2.88;;;;;;;4.69;56.25;101681.09;4131211;28;20042;-72
2023/04/03 03:36:14;;;;;;;4.28;2.28;;;;;;;4.71;55.93;101684.63;4146899;28;20041;-72
2023/04/03 03:38:17;;;;;;;4.45;2.42;;;;;;;4.61;56.38;101688.34;4147373;28;20034;-72
2023/04/03 03:40:20;;;;;;;4.20;2.10;;;;;;;4.57;56.26;101686.44;4146077;28;20034;-72
2023/04/03 03:42:23;;;;;;;4.95;2.58;;;;;;;4.51;56.56;101686.97;4131137;28;20046;-72
2023/04/03 03:44:28;;;;;;;4.72;2.50;;;;;;;4.54;56.58;101684.56;4129607;28;20129;-72
2023/04/03 03:46:31;;;;;;;6.88;2.35;;;;;;;4.45;56.98;101691.72;4125177;28;20489;-72
2023/04/03 03:48:35;;;;;;;4.93;2.22;;;;;;;4.45;56.95;101686.56;4145266;28;20519;-72
2023/04/03 03:50:38;;;;;;;5.78;2.60;;;;;;;4.57;56.71;101690.66;4130503;28;20674;-72
2023/04/03 03:52:41;;;;;;;4.75;2.20;;;;;;;4.55;56.91;101688.88;4130649;28;20050;-71
2023/04/03 03:54:44;;;;;;;4.00;2.40;;;;;;;4.49;56.96;101693.69;4130202;28;20034;-71
2023/04/03 03:56:47;;;;;;;4.38;2.38;;;;;;;4.46;57.08;101688.34;4128602;28;20035;-72
2023/04/03 03:58:50;;;;;;;4.47;2.22;;;;;;;4.44;56.99;101689.06;4114154;28;20097;-72
2023/04/03 04:00:54;;;;;;;3.53;2.08;;;;;;;4.47;57.30;101684.13;4125847;28;20530;-71
2023/04/03 04:02:57;;;;;;;6.47;2.85;;;;;;;4.40;57.26;101693.16;4126862;28;20042;-59
2023/04/03 04:05:02;;;;;;;4.80;2.42;;;;;;;4.45;57.77;101696.00;4129007;28;20145;-58
2023/04/03 04:07:05;;;;;;;5.60;2.80;;;;;;;4.52;59.27;101691.28;4126066;28;20129;-59
2023/04/03 04:09:10;;;;;;;4.43;2.05;;;;;;;4.81;57.69;101688.63;4130039;28;20125;-72
2023/04/03 04:11:13;;;;;;;3.80;2.35;;;;;;;4.88;56.76;101685.63;4143597;28;20132;-70
2023/04/03 04:13:17;;;;;;;4.78;2.53;;;;;;;4.79;56.22;101691.13;4127744;28;20043;-68
2023/04/03 04:15:21;;;;;;;5.55;2.33;;;;;;;4.64;56.84;101685.09;4127402;28;20058;-69
2023/04/03 04:17:25;;;;;;;3.70;2.07;;;;;;;4.57;57.20;101686.44;4144767;28;20129;-70
2023/04/03 04:19:28;;;;;;;3.42;2.22;;;;;;;4.65;56.76;101681.72;4129413;28;20090;-70
2023/04/03 04:21:31;;;;;;;4.93;2.33;;;;;;;4.54;57.18;101681.97;4131012;28;20085;-70
2023/04/03 04:23:34;;;;;;;4.45;2.30;;;;;;;4.51;57.43;101684.38;4126747;28;20034;-70
2023/04/03 04:25:37;;;;;;;7.32;2.72;;;;;;;4.55;57.03;101680.28;4130626;28;20479;-70
2023/04/03 04:27:41;;;;;;;4.15;2.25;;;;;;;4.52;57.10;101687.84;4144235;28;20070;-70
2023/04/03 04:29:44;;;;;;;4.75;2.20;;;;;;;4.50;57.57;101685.16;4125112;28;20113;-70
2023/04/03 04:32:05;;;;;;;3.22;2.35;;;;;;;4.51;57.57;101688.63;4143014;28;20097;-71
2023/04/03 04:34:10;;;;;;;3.75;2.10;;;;;;;4.45;58.04;101677.97;4142728;28;20037;-71
2023/04/03 04:36:14;;;;;;;3.33;2.05;;;;;;;4.51;57.64;101681.81;4130488;28;20104;-71
2023/04/03 04:38:19;;;;;;;6.70;2.25;;;;;;;4.54;57.65;101687.13;4146125;28;20132;-71
2023/04/03 04:40:22;;;;;;;4.72;2.47;;;;;;;4.54;57.45;101675.91;4145971;28;20057;-71
2023/04/03 04:42:26;;;;;;;4.80;2.33;;;;;;;4.57;57.14;101682.94;4145289;28;20455;-71
2023/04/03 04:44:28;;;;;;;6.00;2.67;;;;;;;4.52;57.20;101682.69;4140959;28;20038;-71
2023/04/03 04:46:32;;;;;;;6.25;2.60;;;;;;;4.59;56.96;101683.94;4131087;28;20078;-71
2023/04/03 04:48:36;;;;;;;3.53;2.28;;;;;;;4.47;57.54;101679.84;4114506;28;20069;-72
2023/04/03 04:50:41;;;;;;;5.35;2.65;;;;;;;4.52;57.49;101688.72;4130555;28;20038;-71
2023/04/03 04:52:44;;;;;;;5.15;2.83;;;;;;;4.50;57.20;101690.31;4128185;28;20034;-71
2023/04/03 04:54:47;;;;;;;4.57;2.45;;;;;;;4.44;57.67;101689.97;4146650;28;20038;-71
2023/04/03 04:56:50;;;;;;;4.72;3.20;;;;;;;4.36;57.61;101688.63;4130302;28;20514;-72
2023/04/03 04:58:53;;;;;;;3.50;2.50;;;;;;;4.37;58.35;101695.56;4111308;28;20138;-71
2023/04/03 05:01:00;;;;;;;6.10;2.63;;;;;;;4.41;57.77;101696.59;4124398;28;20129;-71
2023/04/03 05:03:04;;;;;;;8.10;4.38;;;;;;;4.44;57.81;101695.13;4130238;28;20124;-72
2023/04/03 05:05:08;;;;;;;8.68;5.82;;;;;;;4.36;58.17;101701.47;4130064;28;20101;-71
2023/04/03 05:07:14;;;;;;;6.70;3.90;;;;;;;4.45;58.23;101696.88;4127063;28;20034;-71
2023/04/03 05:09:17;;;;;;;7.25;2.60;;;;;;;4.44;57.88;101696.78;4131737;28;20512;-72
2023/04/03 05:11:21;;;;;;;;;;;;;;;4.37;58.37;101704.16;4125315;28;20031;-71
2023/04/03 05:13:27;;;;;;;3.38;2.20;;;;;;;4.40;58.07;101700.88;4113000;28;19984;-71
2023/04/03 05:15:31;;;;;;;4.40;2.58;;;;;;;4.46;58.05;101705.50;4123113;28;20516;-71
2023/04/03 05:17:35;;;;;;;3.78;2.47;;;;;;;4.40;58.50;101703.44;4129263;28;20038;-71
2023/04/03 05:19:40;;;;;;;6.20;3.05;;;;;;;4.42;58.48;101699.25;4127990;28;20405;-72
2023/04/03 05:21:45;;;;;;;4.43;2.67;;;;;;;4.40;58.63;101708.59;4123923;28;20042;-71
2023/04/03 05:23:51;;;;;;;6.10;2.75;;;;;;;4.53;58.38;101708.53;4142579;23;20034;31
2023/04/03 05:25:55;;;;;;;6.25;2.85;;;;;;;4.54;58.23;101711.97;4158562;28;20095;-62
2023/04/03 05:27:59;;;;;;;6.80;2.92;;;;;;;4.54;58.32;101711.97;4162441;28;20041;-62
2023/04/03 05:30:02;;;;;;;6.88;2.45;;;;;;;4.63;58.04;101709.97;4151574;28;20046;-61
2023/04/03 05:32:06;;;;;;;;;;;;;;;4.65;57.80;101715.19;4154431;28;20040;-62
2023/04/03 05:34:09;;;;;;;7.63;3.70;;;;;;;4.56;58.17;101715.53;4142268;28;19921;-62
2023/04/03 05:36:14;;;;;;;5.88;3.08;;;;;;;4.49;58.72;101718.56;4146142;28;20041;-61
2023/04/03 05:38:20;;;;;;;6.80;3.10;;;;;;;4.62;58.41;101715.03;4143076;28;20373;-62
2023/04/03 05:40:23;;;;;;;5.30;3.33;;;;;;;4.62;58.63;101720.19;4146098;28;20072;-61
2023/04/03 05:42:30;;;;;;;6.00;2.83;;;;;;;4.77;58.05;101715.91;4145694;28;20448;-61
2023/04/03 05:44:33;;;;;;;4.00;2.50;;;;;;;4.66;58.50;101720.44;4130911;28;20126;-61
2023/04/03 05:46:37;;;;;;;5.03;2.90;;;;;;;4.68;58.63;101716.25;4146295;28;20041;-62
2023/04/03 05:48:43;;;;;;;7.68;2.90;;;;;;;4.66;58.56;101714.41;4122377;28;20034;-62
2023/04/03 05:50:50;;;;;;;5.53;3.10;;;;;;;4.67;58.66;101714.50;4146088;28;20045;-61
2023/04/03 05:52:59;;;;;;;4.85;2.88;;;;;;;4.67;58.78;101719.66;4144310;28;20524;-62
2023/04/03 05:55:06;;;;;;;5.25;2.90;;;;;;;4.75;58.98;101722.66;4129491;28;20089;-62
2023/04/03 05:57:11;;;;;;;4.28;2.92;;;;;;;4.75;58.54;101721.78;4113244;28;20539;-61
2023/04/03 05:59:18;;;;;;;5.82;3.15;;;;;;;4.84;58.09;101717.16;4145311;28;20126;-62
2023/04/03 06:01:21;;;;;;;4.63;3.03;;;;;;;4.70;58.40;101721.50;4129339;28;20034;-61
2023/04/03 06:03:24;;;;;;;7.03;3.15;;;;;;;4.71;58.64;101723.28;4143703;28;20033;-62
2023/04/03 06:05:27;;;;;;;5.18;2.67;;;;;;;4.79;58.22;101726.28;4136257;28;20117;-62
2023/04/03 06:07:31;;;;;;;5.47;3.05;;;;;;;4.75;58.45;101724.38;4131086;28;20034;-61
2023/04/03 06:09:34;;;;;;;4.90;2.40;;;;;;;4.74;58.83;101718.31;4128673;28;20046;-62
2023/04/03 06:11:37;;;;;;;4.90;2.80;;;;;;;4.85;58.39;101719.81;4130988;28;20069;-62
2023/04/03 06:13:40;;;;;;;6.75;3.08;;;;;;;4.86;58.06;101725.84;4145229;28;20121;-61
2023/04/03 06:15:44;;;;;;;7.43;3.25;;;;;;;4.89;57.97;101724.34;4126082;28;20495;-62
2023/04/03 06:17:47;;;;;;;6.57;3.17;;;;;;;4.98;57.62;101729.16;4129246;28;20058;-62
2023/04/03 06:19:50;;;;;;;5.88;2.97;;;;;;;4.99;57.37;101727.44;4139046;28;20394;-62
2023/04/03 06:21:53;;;;;;;6.07;2.88;;;;;;;4.89;57.90;101728.59;4145131;28;20598;-61
2023/04/03 06:23:56;;;;;;;7.35;4.70;;;;;;;4.93;57.68;101727.09;4145481;28;20034;-62
2023/04/03 06:25:59;;;;;;;6.20;3.63;;;;;;;4.93;57.84;101727.09;4130486;28;20069;-61
2023/04/03 06:28:02;;;;;;;5.95;3.35;;;;;;;4.87;58.02;101720.78;4130434;28;20031;-62
2023/04/03 06:30:07;;;;;;;4.88;3.00;;;;;;;4.99;57.82;101732.59;4130455;28;20048;-62
2023/04/03 06:32:11;;;;;;;5.20;3.13;;;;;;;4.97;58.11;101723.91;4129763;28;20044;-62
2023/04/03 06:34:15;;;;;;;6.38;3.28;;;;;;;4.95;58.30;101733.22;4129092;28;20058;-62
2023/04/03 06:36:20;;;;;;;8.77;3.38;;;;;;;4.88;58.46;101729.41;4130362;28;20408;-64
2023/04/03 06:38:23;;;;;;;9.20;3.20;;;;;;;4.85;58.69;101729.25;4145414;28;20127;-62
2023/04/03 06:40:27;;;;;;;6.20;2.75;;;;;;;4.86;58.83;101729.34;4130838;28;20125;-62
2023/04/03 06:42:30;;;;;;;5.88;3.10;;;;;;;4.90;59.11;101732.97;4129791;28;20062;-62
2023/04/03 06:44:43;;;;;;;6.10;2.75;;;;;;;5.16;58.21;101736.16;4145506;28;20034;-62
2023/04/03 06:46:46;;;;;;;8.48;3.03;;;;;;;4.97;59.01;101734.22;4129110;28;20496;-62
2023/04/03 06:48:50;;;;;;;5.03;3.20;;;;;;;4.91;59.55;101737.31;4136458;28;20089;-62
2023/04/03 06:50:54;;;;;;;9.63;3.95;;;;;;;5.00;59.20;101732.69;4130078;28;20034;-63
2023/04/03 06:52:57;;;;;;;4.90;2.60;;;;;;;5.10;59.19;101734.13;4130017;28;20661;-62
2023/04/03 06:55:00;;;;;;;4.97;2.75;;;;;;;5.19;58.85;101729.47;4128968;28;20046;-62
2023/04/03 06:57:03;;;;;;;6.68;2.85;;;;;;;5.19;59.34;101739.78;4130356;28;20042;-61
2023/04/03 06:59:06;;;;;;;7.22;3.15;;;;;;;5.11;59.62;101738.47;4130516;28;20035;-63
2023/04/03 07:01:09;;;;;;;7.05;3.03;;;;;;;5.16;60.07;101738.72;4145076;28;20030;-63
2023/04/03 07:03:12;;;;;;;7.13;2.85;;;;;;;5.29;59.73;101732.59;4129991;28;20042;-63
2023/04/03 07:05:16;;;;;;;5.53;2.90;;;;;;;5.24;59.97;101746.09;4132663;28;20451;-62
2023/04/03 07:07:20;;;;;;;8.95;3.42;;;;;;;5.34;59.98;101741.44;4133951;28;20096;-62
2023/04/03 07:09:23;;;;;;;5.97;3.30;;;;;;;5.54;59.31;101740.00;4133229;28;20062;-62
2023/04/03 07:11:26;;;;;;;4.38;2.58;;;;;;;5.59;59.06;101751.44;4132212;28;20043;-62
2023/04/03 07:13:28;;;;;;;4.88;2.30;;;;;;;5.69;58.56;101756.28;4133170;28;20037;-62
2023/04/03 07:15:31;;;;;;;7.35;3.83;;;;;;;5.58;58.66;101755.72;4132378;28;20042;-61
2023/04/03 07:17:35;;;;;;;9.60;2.95;;;;;;;5.54;59.17;101755.47;4132795;28;20042;-63
2023/04/03 07:19:38;;;;;;;7.60;3.40;;;;;;;5.52;59.39;101763.13;4131754;28;20044;-62
2023/04/03 07:21:43;;;;;;;7.80;2.90;;;;;;;5.55;59.17;101762.41;4131973;28;20092;-62
2023/04/03 07:23:46;;;;;;;5.93;2.58;;;;;;;5.55;59.51;101759.84;4129135;28;20031;-62
2023/04/03 07:25:50;;;;;;;6.75;3.13;;;;;;;5.63;59.45;101762.81;4133130;28;20045;-62
2023/04/03 07:27:54;;;;;;;6.70;3.40;;;;;;;5.74;59.18;101764.31;4133037;28;20518;-61
2023/04/03 07:29:57;;;;;;;9.23;4.18;;;;;;;5.83;58.77;101764.81;4133690;28;20076;-62
2023/04/03 07:32:00;;;;;;;7.78;2.67;;;;;;;5.73;59.05;101763.41;4128299;28;20081;-62
2023/04/03 07:34:03;;;;;;;5.68;2.28;;;;;;;6.01;57.67;101770.09;4132817;28;20066;-62
2023/04/03 07:36:07;;;;;;;6.47;2.72;;;;;;;5.99;56.96;101770.84;4131394;28;20504;-62
2023/04/03 07:38:12;;;;;;;5.70;2.50;;;;;;;5.99;56.75;101763.09;4119909;28;20121;-62
2023/04/03 07:40:15;;;;;;;4.97;2.42;;;;;;;5.93;57.34;101758.47;4129161;28;20046;-62
2023/04/03 07:42:20;;;;;;;7.07;2.95;;;;;;;6.02;57.25;101766.72;4132667;28;20039;-62
2023/04/03 07:44:22;;;;;;;7.85;3.25;;;;;;;6.09;57.04;101771.41;4132522;28;20093;-62
2023/04/03 07:46:25;;;;;;;5.65;2.63;;;;;;;6.05;57.05;101763.44;4131793;28;20054;-62
2023/04/03 07:48:28;;;;;;;5.43;2.70;;;;;;;5.96;57.74;101774.09;4131132;28;20488;-61
2023/04/03 07:50:32;;;;;;;7.53;2.90;;;;;;;6.22;57.01;101772.06;4131745;28;20395;-61
2023/04/03 07:52:35;;;;;;;5.93;3.70;;;;;;;6.51;55.18;101768.41;4132372;28;20034;-61
2023/04/03 07:54:39;;;;;;;8.57;4.53;;;;;;;6.44;55.32;101764.63;4131951;28;20448;-62
2023/04/03 07:56:42;;;;;;;9.68;4.07;;;;;;;6.45;55.16;101770.69;4127588;28;20042;-62
2023/04/03 07:58:46;;;;;;;5.22;3.20;;;;;;;6.50;55.13;101764.06;4132651;28;20377;-62
2023/04/03 08:00:49;;;;;;;5.05;2.50;;;;;;;6.49;54.71;101771.75;4131303;28;20042;-62
2023/04/03 08:02:52;;;;;;;6.35;3.10;;;;;;;6.54;54.01;101767.69;4132578;28;20038;-63
2023/04/03 08:04:55;;;;;;;5.82;2.40;;;;;;;6.53;53.54;101776.28;4125409;28;20152;-63
2023/04/03 08:06:58;;;;;;;7.82;2.83;;;;;;;6.57;53.49;101768.75;4132387;28;20034;-62
2023/04/03 08:09:01;;;;;;;6.65;2.50;;;;;;;6.64;52.56;101767.34;4132415;28;20043;-62
2023/04/03 08:11:06;;;;;;;4.95;2.75;;;;;;;6.76;51.81;101773.16;4131154;28;20053;-62
2023/04/03 08:13:10;;;;;;;6.10;2.65;;;;;;;6.80;51.12;101772.50;4131512;28;20096;-62
2023/04/03 08:15:13;;;;;;;6.82;2.35;;;;;;;6.79;51.63;101772.41;4132055;28;20042;-62
2023/04/03 08:17:16;;;;;;;6.20;2.50;;;;;;;6.84;51.87;101773.53;4130721;28;20153;-63
2023/04/03 08:19:19;;;;;;;5.97;2.08;;;;;;;6.82;51.78;101770.00;4132264;28;20492;-63
2023/04/03 08:21:28;;;;;;;6.38;3.13;;;;;;;7.02;51.14;101772.69;4132321;28;20046;-62
2023/04/03 08:23:31;;;;;;;3.42;1.80;;;;;;;7.10;49.85;101771.38;4132035;28;20488;-63
2023/04/03 08:25:34;;;;;;;5.30;1.88;;;;;;;6.97;49.92;101770.75;4132520;28;20038;-63
2023/04/03 08:27:38;;;;;;;5.57;2.00;;;;;;;7.15;49.61;101772.47;4131221;28;20038;-62
2023/04/03 08:29:41;;;;;;;6.18;2.05;;;;;;;7.29;48.71;101766.28;4147110;28;20687;-63
2023/04/03 08:31:45;;;;;;;5.10;2.30;;;;;;;7.31;48.08;101766.38;4130110;28;20045;-62
2023/04/03 08:33:49;;;;;;;4.20;1.90;;;;;;;7.33;49.26;101765.63;4131876;28;20129;-63
2023/04/03 08:35:51;;;;;;;5.93;1.80;;;;;;;7.46;48.07;101767.13;4132052;28;20511;-63
2023/04/03 08:37:54;;;;;;;4.90;2.38;;;;;;;7.53;47.17;101765.69;4132370;28;20209;-63
2023/04/03 08:39:58;;;;;;;4.78;1.85;;;;;;;7.54;46.95;101766.59;4130494;28;20034;-63
2023/04/03 08:42:07;;;;;;;5.10;2.15;;;;;;;7.56;47.20;101768.41;4124061;28;20582;-63
2023/04/03 08:44:25;;;;;;;9.30;2.40;;;;;;;7.49;48.14;101771.53;4130573;28;20071;-63
2023/04/03 08:46:41;;;;;;;7.63;2.28;;;;;;;7.58;46.61;101772.00;4131927;28;20049;-63
2023/04/03 08:48:44;;;;;;;5.97;2.10;;;;;;;7.81;44.95;101767.00;4126459;28;20042;-63
2023/04/03 08:50:50;;;;;;;11.30;1.75;;;;;;;7.81;44.16;101765.31;4131055;28;20030;-63
2023/04/03 08:52:58;;;;;;;6.95;2.28;;;;;;;7.86;45.13;101762.94;4131336;28;20053;-63
2023/04/03 08:55:05;;;;;;;5.70;1.60;;;;;;;7.97;45.40;101771.19;4131765;28;20043;-62
2023/04/03 08:57:08;;;;;;;6.70;1.92;;;;;;;7.97;45.32;101772.09;4131253;28;20047;-63
2023/04/03 08:59:18;;;;;;;6.22;1.95;;;;;;;7.89;45.53;101780.31;4131893;28;20045;-63
2023/04/03 09:01:27;;;;;;;7.03;2.15;;;;;;;7.90;45.84;101772.63;4129067;28;20042;-63
2023/04/03 09:03:31;;;;;;;5.65;1.92;;;;;;;8.01;45.80;101778.28;4128725;28;20046;-63
2023/04/03 09:05:42;;;;;;;4.38;1.63;;;;;;;7.94;45.34;101773.63;4139475;28;20038;-63
2023/04/03 09:07:50;;;;;;;4.57;1.60;;;;;;;7.97;45.51;101773.78;4130767;28;20062;-63
2023/04/03 09:09:56;;;;;;;4.63;1.58;;;;;;;8.20;44.37;101773.09;4130350;28;20105;-63
2023/04/03 09:12:10;;;;;;;5.43;1.67;;;;;;;8.36;41.53;101777.28;4126233;28;20108;-62
2023/04/03 09:14:18;;;;;;;3.88;1.65;;;;;;;8.16;42.80;101772.91;4128013;28;20045;-63
2023/04/03 09:16:36;;;;;;;5.40;1.58;;;;;;;8.28;42.39;101767.38;4128074;28;20129;-63
2023/04/03 09:18:46;;;;;;;5.75;1.60;;;;;;;8.52;41.63;101762.44;4129805;28;20415;-63
2023/04/03 09:20:57;;;;;;;3.97;1.40;;;;;;;8.59;41.55;101771.38;4123675;28;20085;-63
2023/04/03 09:23:00;;;;;;;3.67;1.48;;;;;;;8.44;41.78;101771.53;4130936;28;20030;-63
2023/04/03 09:25:12;;;;;;;2.97;1.30;;;;;;;8.67;41.10;101770.00;4131016;28;20050;-63
2023/04/03 09:27:15;;;;;;;3.40;1.48;;;;;;;8.69;41.17;101764.06;4130924;28;20088;-63
2023/04/03 09:29:20;;;;;;;6.68;1.92;;;;;;;8.69;41.32;101765.78;4131679;28;20034;-63
2023/04/03 09:31:26;;;;;;;2.78;1.40;;;;;;;8.88;41.03;101763.13;4129298;28;20037;-63
2023/04/03 09:33:31;;;;;;;3.58;2.00;;;;;;;8.88;40.99;101757.06;4145859;28;20056;-63
2023/04/03 09:35:36;;;;;;;4.90;1.67;;;;;;;9.14;39.70;101770.22;4128790;28;20062;-62
2023/04/03 09:37:51;;;;;;;4.95;1.42;;;;;;;9.32;38.55;101767.50;4131131;28;20040;-62
2023/04/03 09:39:55;;;;;;;3.83;1.92;;;;;;;9.32;38.28;101759.72;4130980;28;20097;-62
2023/04/03 09:42:01;;;;;;;3.58;1.20;;;;;;;9.16;38.38;101753.03;4131048;28;20096;-63
2023/04/03 09:44:22;;;;;;;3.30;1.52;;;;;;;9.21;39.69;101761.88;4129527;28;20060;-63
2023/04/03 09:46:32;;;;;;;3.85;1.50;;;;;;;9.37;39.63;101746.06;4130151;28;20042;-62